Time;durP1;ratioP1;P1;durP2;ratioP2;P2;SDS_P1;SDS_P2;PMS_P1;PMS_P2;Temp;Humidity;BMP_temperature;BMP_pressure;BME280_temperature;BME280_humidity;BME280_pressure;Samples;Min_cycle;Max_cycle;Signal;HPM_P1;HPM_P2
2023/11/29 00:00:43;;;;;;;10.10;8.03;;;3.80;99.90;;;;;;5039764;28;21057;-67
2023/11/29 00:03:08;;;;;;;10.90;8.23;;;3.90;99.90;;;;;;5037011;28;20207;-67
2023/11/29 00:05:36;;;;;;;11.50;8.87;;;3.90;99.90;;;;;;5038909;28;20178;-67
2023/11/29 00:08:04;;;;;;;10.60;8.17;;;3.90;99.90;;;;;;5037653;28;20244;-68
2023/11/29 00:10:30;;;;;;;9.60;8.17;;;3.90;99.90;;;;;;5032261;28;20568;-68
2023/11/29 00:12:56;;;;;;;10.70;9.10;;;3.90;99.90;;;;;;5034678;28;20477;-68
2023/11/29 00:15:21;;;;;;;10.50;8.70;;;3.80;99.90;;;;;;5042456;28;20840;-68
2023/11/29 00:17:47;;;;;;;11.97;9.23;;;3.70;99.90;;;;;;5041906;28;20730;-67
2023/11/29 00:20:13;;;;;;;11.53;9.20;;;3.70;99.90;;;;;;5039602;28;20702;-67
2023/11/29 00:22:38;;;;;;;13.57;9.77;;;3.70;99.90;;;;;;5041375;28;20298;-67
2023/11/29 00:25:04;;;;;;;10.43;8.37;;;3.70;99.90;;;;;;5040208;28;20275;-67
2023/11/29 00:27:30;;;;;;;11.00;8.87;;;3.70;99.90;;;;;;5041801;28;20689;-68
2023/11/29 00:29:55;;;;;;;11.23;9.33;;;3.70;99.90;;;;;;5042029;28;20430;-67
2023/11/29 00:32:21;;;;;;;14.57;10.50;;;3.70;99.90;;;;;;5040688;28;20685;-67
2023/11/29 00:34:47;;;;;;;12.37;9.87;;;3.70;99.90;;;;;;5040605;28;20176;-67
2023/11/29 00:37:12;;;;;;;11.30;9.83;;;3.70;99.90;;;;;;5040625;28;20424;-67
2023/11/29 00:39:39;;;;;;;11.00;9.10;;;3.70;99.90;;;;;;5043421;28;20222;-67
2023/11/29 00:42:04;;;;;;;10.37;8.90;;;3.70;99.90;;;;;;5044938;28;20179;-67
2023/11/29 00:44:30;;;;;;;10.70;8.37;;;3.70;99.90;;;;;;5048114;28;20437;-67
2023/11/29 00:46:56;;;;;;;11.80;9.20;;;3.50;99.90;;;;;;5043409;28;20187;-68
2023/11/29 00:49:21;;;;;;;10.87;9.10;;;3.60;99.90;;;;;;5038039;28;20180;-67
2023/11/29 00:51:48;;;;;;;9.67;8.33;;;3.70;99.90;;;;;;5037299;28;20180;-67
2023/11/29 00:54:13;;;;;;;8.87;7.63;;;3.70;99.90;;;;;;5042416;28;20310;-67
2023/11/29 00:56:39;;;;;;;9.77;7.60;;;3.60;99.90;;;;;;5041819;28;20508;-67
2023/11/29 00:59:04;;;;;;;10.20;8.50;;;3.60;99.90;;;;;;5040088;28;20288;-67
2023/11/29 01:01:30;;;;;;;10.50;8.10;;;3.50;99.90;;;;;;5040461;28;20315;-67
2023/11/29 01:03:56;;;;;;;10.23;7.70;;;3.60;99.90;;;;;;5042034;28;20212;-67
2023/11/29 01:06:21;;;;;;;9.80;8.17;;;3.50;99.90;;;;;;5041792;28;20263;-67
2023/11/29 01:08:47;;;;;;;8.90;8.00;;;3.50;99.90;;;;;;5041089;28;20708;-67
2023/11/29 01:11:12;;;;;;;10.50;7.70;;;3.50;99.90;;;;;;5039880;28;20214;-67
2023/11/29 01:13:38;;;;;;;10.70;8.00;;;3.50;99.90;;;;;;5039564;28;20223;-67
2023/11/29 01:16:04;;;;;;;9.50;8.40;;;3.50;99.90;;;;;;5041770;28;20186;-67
2023/11/29 01:18:32;;;;;;;9.60;7.50;;;3.50;99.90;;;;;;5047700;28;20219;-67
2023/11/29 01:20:58;;;;;;;9.17;7.83;;;3.40;99.90;;;;;;5038681;28;20168;-67
2023/11/29 01:23:23;;;;;;;11.53;7.90;;;3.40;99.90;;;;;;5045371;28;20486;-67
2023/11/29 01:25:49;;;;;;;9.10;7.43;;;3.50;99.90;;;;;;5046726;28;20219;-67
2023/11/29 01:28:15;;;;;;;11.83;8.03;;;3.50;99.90;;;;;;5036847;28;20195;-68
2023/11/29 01:30:40;;;;;;;10.83;8.57;;;3.50;99.90;;;;;;5042000;28;20283;-68
2023/11/29 01:33:06;;;;;;;9.70;8.10;;;3.50;99.90;;;;;;5041539;28;20266;-68
2023/11/29 01:35:31;;;;;;;11.73;8.67;;;3.40;99.90;;;;;;5043608;28;20238;-67
2023/11/29 01:37:58;;;;;;;12.50;9.77;;;3.30;99.90;;;;;;5040058;28;20648;-68
2023/11/29 01:40:23;;;;;;;10.53;9.37;;;3.30;99.90;;;;;;5043623;28;20650;-68
2023/11/29 01:42:49;;;;;;;10.67;8.20;;;3.30;99.90;;;;;;5042519;28;20485;-68
2023/11/29 01:45:15;;;;;;;9.90;7.93;;;3.30;99.90;;;;;;5046007;28;20263;-68
2023/11/29 01:47:40;;;;;;;10.97;8.77;;;3.20;99.90;;;;;;5042093;28;20207;-67
2023/11/29 01:50:08;;;;;;;14.40;9.50;;;3.20;99.90;;;;;;5040355;28;20520;-67
2023/11/29 01:52:35;;;;;;;11.20;8.80;;;3.30;99.90;;;;;;5035661;28;20599;-67
2023/11/29 01:55:01;;;;;;;11.70;9.30;;;3.30;99.90;;;;;;5037807;28;20512;-68
2023/11/29 01:57:27;;;;;;;10.00;8.27;;;3.30;99.90;;;;;;5040048;28;20438;-68
2023/11/29 01:59:53;;;;;;;14.80;10.17;;;3.30;99.90;;;;;;5038929;28;20423;-67
2023/11/29 02:02:19;;;;;;;14.20;10.30;;;3.30;99.90;;;;;;5044249;28;20185;-67
2023/11/29 02:04:45;;;;;;;12.03;10.33;;;3.30;99.90;;;;;;5042115;28;20776;-67
2023/11/29 02:07:12;;;;;;;12.03;9.00;;;3.30;99.90;;;;;;5040781;28;20450;-67
2023/11/29 02:09:41;;;;;;;10.60;7.93;;;3.20;99.90;;;;;;5044266;28;20423;-66
2023/11/29 02:12:07;;;;;;;13.07;10.20;;;3.30;99.90;;;;;;5043632;28;20517;-66
2023/11/29 02:14:42;;;;;;;13.07;9.23;;;3.40;99.90;;;;;;5043364;28;20456;-67
2023/11/29 02:17:09;;;;;;;13.40;9.33;;;3.40;99.90;;;;;;5040526;28;20405;-66
2023/11/29 02:19:35;;;;;;;11.80;9.63;;;3.40;99.90;;;;;;5036779;28;20411;-66
2023/11/29 02:22:01;;;;;;;12.70;9.90;;;3.30;99.90;;;;;;5036018;28;20414;-67
2023/11/29 02:24:42;;;;;;;20.90;9.80;;;3.30;99.90;;;;;;5042543;28;20192;-66
2023/11/29 02:27:09;;;;;;;12.90;9.40;;;3.40;99.90;;;;;;5044777;28;20206;-66
2023/11/29 02:29:34;;;;;;;13.60;10.60;;;3.40;99.90;;;;;;5045026;28;20418;-66
2023/11/29 02:32:00;;;;;;;14.90;10.60;;;3.30;99.90;;;;;;5039190;28;20812;-67
2023/11/29 02:34:25;;;;;;;14.37;10.50;;;3.40;99.90;;;;;;5037562;28;20206;-67
2023/11/29 02:36:51;;;;;;;15.97;9.10;;;3.50;99.90;;;;;;5036667;28;20276;-66
2023/11/29 02:39:16;;;;;;;13.90;9.73;;;3.50;99.90;;;;;;5044820;28;20168;-66
2023/11/29 02:41:42;;;;;;;13.20;10.00;;;3.50;99.90;;;;;;5042724;28;20171;-66
2023/11/29 02:44:08;;;;;;;17.33;10.17;;;3.60;99.90;;;;;;5044045;28;20607;-66
2023/11/29 02:46:33;;;;;;;12.93;9.03;;;3.70;99.90;;;;;;5037450;28;20195;-67
2023/11/29 02:48:59;;;;;;;12.27;8.63;;;3.70;99.90;;;;;;5041820;28;20206;-66
2023/11/29 02:51:25;;;;;;;17.00;10.43;;;3.70;99.90;;;;;;5044860;28;20689;-66
2023/11/29 02:53:51;;;;;;;12.13;8.47;;;3.80;99.90;;;;;;5045276;28;20652;-66
2023/11/29 02:56:16;;;;;;;13.43;8.93;;;3.60;99.90;;;;;;5042285;28;20415;-66
2023/11/29 02:58:42;;;;;;;11.93;8.70;;;3.70;99.90;;;;;;5043399;28;20237;-67
2023/11/29 03:01:08;;;;;;;13.17;8.40;;;3.70;99.90;;;;;;5045056;28;20574;-66
2023/11/29 03:03:34;;;;;;;12.67;9.83;;;3.60;99.90;;;;;;5037369;28;20208;-66
2023/11/29 03:05:59;;;;;;;12.13;8.33;;;3.60;99.90;;;;;;5042327;28;20422;-66
2023/11/29 03:08:25;;;;;;;12.10;7.90;;;3.60;99.90;;;;;;5044432;28;20279;-67
2023/11/29 03:10:52;;;;;;;11.33;9.17;;;3.70;99.90;;;;;;5038212;28;20557;-67
2023/11/29 03:13:18;;;;;;;13.43;8.70;;;3.70;99.90;;;;;;5039070;28;20211;-66
2023/11/29 03:15:43;;;;;;;12.33;8.43;;;3.60;99.90;;;;;;5040970;28;21127;-66
2023/11/29 03:18:09;;;;;;;11.70;8.50;;;3.60;99.90;;;;;;5038047;28;20553;-67
2023/11/29 03:20:34;;;;;;;10.30;7.97;;;3.60;99.90;;;;;;5040238;28;20684;-67
2023/11/29 03:23:00;;;;;;;11.03;7.97;;;3.50;99.90;;;;;;5037482;28;20224;-67
2023/11/29 03:25:25;;;;;;;11.00;8.67;;;3.50;99.90;;;;;;5035934;28;20267;-66
2023/11/29 03:27:53;;;;;;;10.10;7.33;;;3.60;99.90;;;;;;5037057;28;20173;-67
2023/11/29 03:30:18;;;;;;;11.50;7.67;;;3.50;99.90;;;;;;5038915;28;20657;-66
2023/11/29 03:32:44;;;;;;;13.53;8.80;;;3.40;99.90;;;;;;5042347;28;20552;-66
2023/11/29 03:35:09;;;;;;;10.70;7.40;;;3.40;99.90;;;;;;5041911;28;20208;-66
2023/11/29 03:37:35;;;;;;;11.67;8.13;;;3.40;99.90;;;;;;5041501;28;20172;-66
2023/11/29 03:40:00;;;;;;;10.83;7.67;;;3.40;99.90;;;;;;5038909;28;20573;-66
2023/11/29 03:42:26;;;;;;;11.67;7.60;;;3.40;99.90;;;;;;5042735;28;20710;-66
2023/11/29 03:44:51;;;;;;;13.20;8.60;;;3.50;99.90;;;;;;5042860;28;20199;-66
2023/11/29 03:47:17;;;;;;;12.87;7.53;;;3.50;99.90;;;;;;5046804;28;20293;-66
2023/11/29 03:49:43;;;;;;;10.50;7.00;;;3.40;99.90;;;;;;5037184;28;20336;-67
2023/11/29 03:52:08;;;;;;;11.20;7.97;;;3.40;99.90;;;;;;5041231;28;20176;-67
2023/11/29 03:54:34;;;;;;;10.40;7.50;;;3.40;99.90;;;;;;5040033;28;20773;-67
2023/11/29 03:56:59;;;;;;;9.87;7.03;;;3.30;99.90;;;;;;5038184;28;20180;-67
2023/11/29 03:59:25;;;;;;;10.43;7.83;;;3.30;99.90;;;;;;5041347;28;20253;-67
2023/11/29 04:01:51;;;;;;;13.93;7.77;;;3.40;99.90;;;;;;5041441;28;20209;-66
2023/11/29 04:04:16;;;;;;;10.30;7.50;;;3.40;99.90;;;;;;5038408;28;20308;-66
2023/11/29 04:06:42;;;;;;;13.47;8.80;;;3.30;99.90;;;;;;5045159;28;20179;-67
2023/11/29 04:09:07;;;;;;;12.80;7.93;;;3.30;99.90;;;;;;5041176;28;20186;-67
2023/11/29 04:11:33;;;;;;;11.10;8.10;;;3.30;99.90;;;;;;5039204;28;20184;-67
2023/11/29 04:13:58;;;;;;;10.90;7.10;;;3.20;99.90;;;;;;5037581;28;20231;-67
2023/11/29 04:16:27;;;;;;;10.60;7.33;;;3.10;99.90;;;;;;5038743;28;20173;-67
2023/11/29 04:18:53;;;;;;;11.23;7.90;;;3.30;99.90;;;;;;5038575;28;20178;-67
2023/11/29 04:21:29;;;;;;;9.80;6.60;;;3.30;99.90;;;;;;5038910;28;20517;-67
2023/11/29 04:23:55;;;;;;;8.80;6.80;;;3.40;99.90;;;;;;5040411;28;20465;-67
2023/11/29 04:26:30;;;;;;;9.17;6.60;;;3.40;99.90;;;;;;5040994;28;20425;-67
2023/11/29 04:28:57;;;;;;;10.70;7.73;;;3.40;99.90;;;;;;5040216;28;20769;-67
2023/11/29 04:31:24;;;;;;;8.57;6.50;;;3.40;99.90;;;;;;5037807;28;20492;-67
2023/11/29 04:33:50;;;;;;;11.03;7.53;;;3.40;99.90;;;;;;5035911;28;20469;-67
2023/11/29 04:36:15;;;;;;;12.20;7.90;;;3.30;99.90;;;;;;5041481;28;20456;-67
2023/11/29 04:38:41;;;;;;;7.67;6.23;;;3.40;99.90;;;;;;5044308;28;20980;-67
2023/11/29 04:41:08;;;;;;;9.37;7.00;;;3.40;99.90;;;;;;5037132;28;20635;-67
2023/11/29 04:43:34;;;;;;;10.77;7.37;;;3.40;99.90;;;;;;5033432;28;20254;-67
2023/11/29 04:45:59;;;;;;;10.10;7.77;;;3.40;99.90;;;;;;5039253;28;20418;-67
2023/11/29 04:48:25;;;;;;;10.07;7.23;;;3.30;99.90;;;;;;5034404;28;20267;-68
2023/11/29 04:50:50;;;;;;;11.70;6.77;;;3.40;99.90;;;;;;5036728;28;20188;-68
2023/11/29 04:53:16;;;;;;;9.40;6.37;;;3.50;99.90;;;;;;5042129;28;20265;-67
2023/11/29 04:55:41;;;;;;;8.47;6.07;;;3.40;99.90;;;;;;5045395;28;20542;-67
2023/11/29 04:58:07;;;;;;;7.33;6.40;;;3.50;99.90;;;;;;5042024;28;20245;-67
2023/11/29 05:00:33;;;;;;;10.03;6.47;;;3.60;99.90;;;;;;5041152;28;20168;-67
2023/11/29 05:02:58;;;;;;;9.60;6.90;;;3.50;99.90;;;;;;5042891;28;20243;-68
2023/11/29 05:05:24;;;;;;;8.47;6.30;;;3.60;99.90;;;;;;5048832;28;20176;-67
2023/11/29 05:07:51;;;;;;;10.30;6.47;;;3.60;99.90;;;;;;5048423;28;20608;-67
2023/11/29 05:10:17;;;;;;;8.13;6.33;;;3.70;99.90;;;;;;5043378;28;20177;-68
2023/11/29 05:12:43;;;;;;;8.40;5.97;;;3.60;99.90;;;;;;5043271;28;20898;-67
2023/11/29 05:15:09;;;;;;;9.90;6.00;;;3.70;99.90;;;;;;5040158;28;20195;-68
2023/11/29 05:17:34;;;;;;;8.43;6.33;;;3.70;99.90;;;;;;5043347;28;20176;-67
2023/11/29 05:20:00;;;;;;;9.27;6.07;;;3.80;99.90;;;;;;5042651;28;20452;-67
2023/11/29 05:22:25;;;;;;;6.90;5.77;;;3.70;99.90;;;;;;5038192;28;20316;-67
2023/11/29 05:24:51;;;;;;;9.50;6.53;;;3.80;99.90;;;;;;5043721;28;20188;-67
2023/11/29 05:27:16;;;;;;;10.37;6.53;;;3.80;99.90;;;;;;5045799;28;20176;-67
2023/11/29 05:29:42;;;;;;;6.83;5.67;;;3.80;99.90;;;;;;5046553;28;20198;-68
2023/11/29 05:32:08;;;;;;;8.80;5.80;;;3.90;99.90;;;;;;5042136;28;20250;-67
2023/11/29 05:34:34;;;;;;;7.70;6.00;;;3.90;99.90;;;;;;5043143;28;20651;-67
2023/11/29 05:37:00;;;;;;;8.07;5.77;;;3.90;99.90;;;;;;5035552;28;20530;-67
2023/11/29 05:39:26;;;;;;;8.27;5.60;;;3.90;99.90;;;;;;5044784;28;20436;-68
2023/11/29 05:41:53;;;;;;;8.37;5.73;;;3.90;99.90;;;;;;5047760;28;20267;-67
2023/11/29 05:44:18;;;;;;;7.70;6.00;;;4.00;99.90;;;;;;5042886;28;20223;-67
2023/11/29 05:46:44;;;;;;;7.10;5.33;;;4.00;99.90;;;;;;5043721;28;20443;-67
2023/11/29 05:49:09;;;;;;;7.30;5.60;;;3.90;99.90;;;;;;5045475;28;20263;-67
2023/11/29 05:51:35;;;;;;;6.03;4.97;;;3.90;99.90;;;;;;5042052;28;20190;-67
2023/11/29 05:54:01;;;;;;;7.97;5.50;;;3.90;99.90;;;;;;5042660;28;20230;-67
2023/11/29 05:56:27;;;;;;;8.60;6.07;;;3.90;99.90;;;;;;5043954;28;20501;-67
2023/11/29 05:58:53;;;;;;;8.93;5.67;;;3.90;99.90;;;;;;5051865;28;20285;-67
2023/11/29 06:01:19;;;;;;;7.30;5.73;;;3.80;99.90;;;;;;5043337;28;20437;-67
2023/11/29 06:03:46;;;;;;;11.43;5.50;;;3.70;99.90;;;;;;5041196;28;20537;-66
2023/11/29 06:06:11;;;;;;;7.83;5.83;;;3.70;99.90;;;;;;5043730;28;20421;-67
2023/11/29 06:08:37;;;;;;;6.23;4.90;;;3.70;99.90;;;;;;5046057;28;20564;-67
2023/11/29 06:11:07;;;;;;;6.77;5.33;;;3.80;99.90;;;;;;5039249;28;20207;-67
2023/11/29 06:13:33;;;;;;;7.57;5.77;;;3.80;99.90;;;;;;5041414;28;20472;-67
2023/11/29 06:15:59;;;;;;;6.93;5.27;;;3.80;99.90;;;;;;5039262;28;20442;-67
2023/11/29 06:18:25;;;;;;;7.60;4.93;;;3.80;99.90;;;;;;5040576;28;20433;-67
2023/11/29 06:20:51;;;;;;;6.43;5.30;;;3.80;99.90;;;;;;5040269;28;20423;-67
2023/11/29 06:23:17;;;;;;;6.77;5.10;;;3.80;99.90;;;;;;5034525;28;20224;-67
2023/11/29 06:25:43;;;;;;;8.73;5.50;;;3.80;99.90;;;;;;5039323;28;20227;-67
2023/11/29 06:28:08;;;;;;;6.37;5.10;;;3.80;99.90;;;;;;5042046;28;20900;-67
2023/11/29 06:30:34;;;;;;;6.20;4.93;;;3.70;99.90;;;;;;5041542;28;20184;-67
2023/11/29 06:32:59;;;;;;;9.27;5.30;;;3.90;99.90;;;;;;5040020;28;20216;-68
2023/11/29 06:35:25;;;;;;;6.20;5.20;;;3.90;99.90;;;;;;5042101;28;20233;-67
2023/11/29 06:37:51;;;;;;;5.97;4.90;;;3.90;99.90;;;;;;5036678;28;20308;-68
2023/11/29 06:40:16;;;;;;;7.50;5.10;;;3.80;99.90;;;;;;5042174;28;20562;-68
2023/11/29 06:42:47;;;;;;;11.10;5.43;;;3.80;99.90;;;;;;5046484;28;20645;-68
2023/11/29 06:45:13;;;;;;;7.10;5.17;;;3.80;99.90;;;;;;5045633;28;20180;-68
2023/11/29 06:47:39;;;;;;;6.53;4.80;;;3.80;99.90;;;;;;5042086;28;20460;-67
2023/11/29 06:50:05;;;;;;;7.30;4.77;;;3.80;99.90;;;;;;5037524;28;20327;-67
2023/11/29 06:52:32;;;;;;;8.40;5.47;;;3.80;99.90;;;;;;5040971;28;20200;-68
2023/11/29 06:54:58;;;;;;;7.70;5.50;;;3.90;99.90;;;;;;5043380;28;21089;-67
2023/11/29 06:57:24;;;;;;;9.77;5.30;;;3.90;99.90;;;;;;5044130;28;20418;-67
2023/11/29 06:59:49;;;;;;;6.50;5.10;;;3.80;99.90;;;;;;5042958;28;20410;-67
2023/11/29 07:02:15;;;;;;;5.90;4.83;;;3.80;99.90;;;;;;5043060;28;20185;-68
2023/11/29 07:04:44;;;;;;;5.70;4.83;;;3.80;99.90;;;;;;5041817;28;20450;-67
2023/11/29 07:07:10;;;;;;;5.80;4.83;;;3.90;99.90;;;;;;5041772;28;20191;-66
2023/11/29 07:09:35;;;;;;;7.27;5.00;;;3.80;99.90;;;;;;5040065;28;20443;-67
2023/11/29 07:12:01;;;;;;;6.53;5.10;;;3.90;99.90;;;;;;5039324;28;20421;-67
2023/11/29 07:14:27;;;;;;;6.67;4.40;;;3.90;99.90;;;;;;5040314;28;20218;-67
2023/11/29 07:16:52;;;;;;;6.30;5.43;;;3.80;99.90;;;;;;5041154;28;20179;-66
2023/11/29 07:19:18;;;;;;;7.07;4.93;;;3.90;99.90;;;;;;5039775;28;20622;-66
2023/11/29 07:21:44;;;;;;;7.10;5.00;;;3.90;99.90;;;;;;5037935;28;20569;-67
2023/11/29 07:24:10;;;;;;;5.83;4.77;;;3.90;99.90;;;;;;5040757;28;20521;-67
2023/11/29 07:26:36;;;;;;;7.13;5.37;;;3.80;99.90;;;;;;5037361;28;20187;-66
2023/11/29 07:29:03;;;;;;;7.50;5.87;;;3.90;99.90;;;;;;5039697;28;20416;-67
2023/11/29 07:31:29;;;;;;;6.70;5.10;;;4.00;99.90;;;;;;5040558;28;20529;-66
2023/11/29 07:33:56;;;;;;;6.30;4.67;;;4.00;99.90;;;;;;5046414;28;20480;-66
2023/11/29 07:36:22;;;;;;;12.13;5.37;;;3.90;99.90;;;;;;5035148;28;20187;-66
2023/11/29 07:38:48;;;;;;;7.13;5.30;;;3.70;99.90;;;;;;5042601;28;20500;-67
2023/11/29 07:41:15;;;;;;;5.43;4.40;;;3.80;99.90;;;;;;5041641;28;20933;-67
2023/11/29 07:43:41;;;;;;;7.37;5.33;;;3.80;99.90;;;;;;5044514;28;20265;-67
2023/11/29 07:46:06;;;;;;;6.80;4.87;;;3.90;99.90;;;;;;5042073;28;20430;-66
2023/11/29 07:48:32;;;;;;;8.00;5.00;;;3.90;99.90;;;;;;5036518;28;20706;-66
2023/11/29 07:50:59;;;;;;;8.90;5.87;;;3.90;99.90;;;;;;5040288;28;20184;-66
2023/11/29 07:53:24;;;;;;;6.73;5.17;;;3.80;99.90;;;;;;5048562;28;20214;-66
2023/11/29 07:55:50;;;;;;;6.90;5.47;;;3.90;99.90;;;;;;5039528;28;20434;-66
2023/11/29 07:58:16;;;;;;;5.90;4.90;;;3.90;99.90;;;;;;5045209;28;20176;-66
2023/11/29 08:00:41;;;;;;;5.43;4.80;;;3.70;99.90;;;;;;5046031;28;20176;-66
2023/11/29 08:03:07;;;;;;;7.10;5.10;;;3.70;99.90;;;;;;5044270;28;20763;-66
2023/11/29 08:05:33;;;;;;;5.90;4.60;;;3.60;99.90;;;;;;5041087;28;20211;-66
2023/11/29 08:07:59;;;;;;;8.60;6.07;;;3.50;99.90;;;;;;5041587;28;20181;-67
2023/11/29 08:10:24;;;;;;;5.97;5.10;;;3.50;99.90;;;;;;5039986;28;20778;-66
2023/11/29 08:12:51;;;;;;;7.83;5.73;;;3.40;99.90;;;;;;5042447;28;20211;-67
2023/11/29 08:15:17;;;;;;;7.63;5.30;;;3.20;99.90;;;;;;5040958;28;20515;-66
2023/11/29 08:17:42;;;;;;;9.30;6.57;;;3.10;99.90;;;;;;5042132;28;20405;-67
2023/11/29 08:20:09;;;;;;;8.17;5.67;;;3.10;99.90;;;;;;5038458;28;20180;-67
2023/11/29 08:22:35;;;;;;;7.77;5.73;;;3.20;99.90;;;;;;5044082;28;20219;-66
2023/11/29 08:25:00;;;;;;;10.33;6.70;;;3.20;99.90;;;;;;5045125;28;20442;-66
2023/11/29 08:27:26;;;;;;;8.43;6.40;;;3.30;99.90;;;;;;5041913;28;20254;-66
2023/11/29 08:29:54;;;;;;;7.67;6.77;;;3.40;99.90;;;;;;5041301;28;20168;-66
2023/11/29 08:32:20;;;;;;;9.23;7.03;;;3.30;99.90;;;;;;5039561;28;20190;-67
2023/11/29 08:34:46;;;;;;;11.40;7.83;;;3.20;99.90;;;;;;5040036;28;20437;-66
2023/11/29 08:37:11;;;;;;;9.47;6.63;;;3.30;99.90;;;;;;5042234;28;20239;-66
2023/11/29 08:39:37;;;;;;;11.10;7.70;;;3.40;99.90;;;;;;5043610;28;20204;-67
2023/11/29 08:42:03;;;;;;;7.67;6.00;;;3.60;99.90;;;;;;5049896;28;20731;-67
2023/11/29 08:44:32;;;;;;;8.47;6.30;;;3.70;99.90;;;;;;5044514;28;20446;-67
2023/11/29 08:46:57;;;;;;;8.07;6.43;;;3.60;99.90;;;;;;5041000;28;20454;-67
2023/11/29 08:49:24;;;;;;;8.43;6.00;;;3.80;99.90;;;;;;5041439;28;20986;-67
2023/11/29 08:51:49;;;;;;;8.80;6.30;;;3.80;99.90;;;;;;5038979;28;20186;-67
2023/11/29 08:54:15;;;;;;;7.70;5.63;;;3.90;99.90;;;;;;5042240;28;20474;-67
2023/11/29 08:56:40;;;;;;;6.63;5.77;;;4.20;99.90;;;;;;5044505;28;20179;-67
2023/11/29 08:59:06;;;;;;;7.63;5.20;;;4.30;99.90;;;;;;5046042;28;20179;-67
2023/11/29 09:01:32;;;;;;;5.97;4.60;;;4.30;99.90;;;;;;5044698;28;20180;-67
2023/11/29 09:03:58;;;;;;;6.90;5.20;;;4.10;99.90;;;;;;5043068;28;20204;-67
2023/11/29 09:06:24;;;;;;;5.60;4.73;;;4.10;99.90;;;;;;5041835;28;20852;-67
2023/11/29 09:08:50;;;;;;;6.80;5.17;;;4.00;99.90;;;;;;5045166;28;20410;-68
2023/11/29 09:11:16;;;;;;;5.33;4.60;;;4.00;99.90;;;;;;5042452;28;20219;-67
2023/11/29 09:13:44;;;;;;;5.70;4.33;;;3.90;99.90;;;;;;5037055;28;20520;-67
2023/11/29 09:16:11;;;;;;;9.20;4.73;;;3.90;99.90;;;;;;5042705;28;20441;-67
2023/11/29 09:18:39;;;;;;;5.43;4.07;;;4.00;99.90;;;;;;5043535;28;20476;-67
2023/11/29 09:21:05;;;;;;;4.73;3.60;;;4.00;99.90;;;;;;5042249;28;20431;-67
2023/11/29 09:23:32;;;;;;;6.50;4.80;;;4.00;99.90;;;;;;5041552;28;20993;-67
2023/11/29 09:25:58;;;;;;;6.57;5.00;;;4.00;99.90;;;;;;5044888;28;20617;-67
2023/11/29 09:28:24;;;;;;;4.83;4.10;;;4.10;99.90;;;;;;5041396;28;20463;-67
2023/11/29 09:30:49;;;;;;;6.50;4.27;;;4.20;99.90;;;;;;5041054;28;20426;-67
2023/11/29 09:33:15;;;;;;;5.90;4.50;;;4.20;99.90;;;;;;5042399;28;20306;-67
2023/11/29 09:35:42;;;;;;;5.57;4.40;;;4.20;99.90;;;;;;5039784;28;20172;-67
2023/11/29 09:38:08;;;;;;;5.50;4.50;;;4.30;99.90;;;;;;5039792;28;20172;-67
2023/11/29 09:40:34;;;;;;;5.27;4.23;;;4.30;99.90;;;;;;5049055;28;20448;-67
2023/11/29 09:43:00;;;;;;;5.30;4.17;;;4.30;99.90;;;;;;5042621;28;21047;-67
2023/11/29 09:45:26;;;;;;;5.30;4.00;;;4.20;99.90;;;;;;5044373;28;20259;-67
2023/11/29 09:47:53;;;;;;;5.10;4.27;;;4.30;99.90;;;;;;5041977;28;20175;-67
2023/11/29 09:50:18;;;;;;;5.63;4.37;;;4.40;99.90;;;;;;5035521;28;20817;-67
2023/11/29 09:52:44;;;;;;;6.27;4.57;;;4.40;99.90;;;;;;5041170;28;20472;-67
2023/11/29 09:55:11;;;;;;;4.50;3.90;;;4.40;99.90;;;;;;5044361;28;20279;-67
2023/11/29 09:57:37;;;;;;;4.63;4.07;;;4.30;99.90;;;;;;5042213;28;20222;-67
2023/11/29 10:00:09;;;;;;;4.80;4.00;;;4.20;99.90;;;;;;5040456;28;20415;-67
2023/11/29 10:02:35;;;;;;;6.27;3.97;;;4.30;99.90;;;;;;5037033;28;20797;-67
2023/11/29 10:05:01;;;;;;;6.50;4.50;;;4.40;99.90;;;;;;5045669;28;20898;-67
2023/11/29 10:07:27;;;;;;;7.50;4.37;;;4.40;99.90;;;;;;5043585;28;20433;-67
2023/11/29 10:09:59;;;;;;;7.27;4.80;;;4.50;99.90;;;;;;5042477;28;20191;-67
2023/11/29 10:12:24;;;;;;;6.13;5.00;;;4.60;99.90;;;;;;5042189;28;20195;-67
2023/11/29 10:14:50;;;;;;;5.60;4.00;;;4.60;99.90;;;;;;5037118;28;20422;-67
2023/11/29 10:17:16;;;;;;;5.67;5.03;;;4.60;99.90;;;;;;5039222;28;20221;-67
2023/11/29 10:19:44;;;;;;;4.77;4.27;;;4.60;99.90;;;;;;5042365;28;20551;-67
2023/11/29 10:22:14;;;;;;;9.93;4.97;;;4.70;99.90;;;;;;5040689;28;20445;-67
2023/11/29 10:24:40;;;;;;;6.03;5.00;;;4.70;99.90;;;;;;5045253;28;20438;-67
2023/11/29 10:27:08;;;;;;;6.23;4.70;;;4.60;99.90;;;;;;5040821;28;20445;-67
2023/11/29 10:29:34;;;;;;;4.87;4.37;;;4.60;99.90;;;;;;5040988;28;20179;-67
2023/11/29 10:32:03;;;;;;;6.47;4.30;;;4.60;99.90;;;;;;5047633;28;20998;-67
2023/11/29 10:34:32;;;;;;;4.67;3.97;;;4.60;99.90;;;;;;5047793;28;20564;-67
2023/11/29 10:36:58;;;;;;;5.40;4.63;;;4.70;99.90;;;;;;5036594;28;20534;-67
2023/11/29 10:39:28;;;;;;;6.50;4.40;;;4.80;99.90;;;;;;5035595;28;20410;-67
2023/11/29 10:41:58;;;;;;;5.90;3.60;;;4.80;99.90;;;;;;5041294;28;20512;-67
2023/11/29 10:44:38;;;;;;;5.60;4.57;;;4.90;99.90;;;;;;5043920;28;20442;-67
2023/11/29 10:47:31;;;;;;;5.20;4.30;;;4.90;99.90;;;;;;5042207;28;20417;-68
2023/11/29 10:50:01;;;;;;;5.37;4.10;;;5.00;99.90;;;;;;5042829;28;20469;-68
2023/11/29 10:52:27;;;;;;;5.33;4.00;;;5.10;99.90;;;;;;5038486;28;20443;-68
2023/11/29 10:54:53;;;;;;;5.70;3.97;;;5.00;99.90;;;;;;5045578;28;20970;-67
2023/11/29 10:57:32;;;;;;;7.93;4.07;;;5.00;99.90;;;;;;5045733;28;20271;-67
2023/11/29 11:00:15;;;;;;;5.13;4.30;;;4.90;99.90;;;;;;5044468;28;20449;-67
2023/11/29 11:02:47;;;;;;;4.10;3.30;;;5.00;99.90;;;;;;5039841;28;20473;-68
2023/11/29 11:05:16;;;;;;;4.23;3.73;;;4.90;99.90;;;;;;5044196;28;20430;-67
2023/11/29 11:07:43;;;;;;;4.93;4.43;;;5.10;99.90;;;;;;5042667;28;20468;-68
2023/11/29 11:10:17;;;;;;;4.23;3.80;;;5.20;99.90;;;;;;5036650;28;20523;-67
2023/11/29 11:12:43;;;;;;;4.20;3.53;;;5.40;99.90;;;;;;5034147;28;20830;-67
2023/11/29 11:15:24;;;;;;;5.27;4.00;;;5.40;99.90;;;;;;5040154;28;20801;-67
2023/11/29 11:18:01;;;;;;;5.43;3.93;;;5.40;99.90;;;;;;5041223;28;20450;-68
2023/11/29 11:20:40;;;;;;;4.10;3.50;;;5.40;99.90;;;;;;5039377;28;20452;-68
2023/11/29 11:23:06;;;;;;;4.70;3.90;;;5.60;99.90;;;;;;5036629;28;20548;-68
2023/11/29 11:25:32;;;;;;;5.20;4.20;;;5.70;99.90;;;;;;5040227;28;20568;-68
2023/11/29 11:27:58;;;;;;;3.77;3.47;;;5.80;99.90;;;;;;5041180;28;20456;-68
2023/11/29 11:30:28;;;;;;;7.23;4.50;;;6.00;99.90;;;;;;5040337;28;20638;-68
2023/11/29 11:32:55;;;;;;;6.70;4.00;;;6.10;99.90;;;;;;5038185;28;20254;-68
2023/11/29 11:35:24;;;;;;;4.83;3.80;;;6.20;99.90;;;;;;5041053;28;20423;-68
2023/11/29 11:38:06;;;;;;;4.37;3.67;;;6.20;99.90;;;;;;5038458;28;20884;-67
2023/11/29 11:40:34;;;;;;;4.50;3.90;;;6.10;99.90;;;;;;5043836;28;20422;-66
2023/11/29 11:43:01;;;;;;;6.00;4.40;;;6.00;99.90;;;;;;5037658;28;20833;-66
2023/11/29 11:45:31;;;;;;;5.87;4.40;;;6.10;99.90;;;;;;5039308;28;20422;-69
2023/11/29 11:47:57;;;;;;;9.40;5.57;;;6.10;99.90;;;;;;5036988;28;20946;-69
2023/11/29 11:50:24;;;;;;;5.40;4.07;;;6.10;99.90;;;;;;5043829;28;20785;-70
2023/11/29 11:52:50;;;;;;;5.47;4.33;;;6.10;99.90;;;;;;5043950;28;20991;-66
2023/11/29 11:55:15;;;;;;;5.40;3.73;;;6.20;99.90;;;;;;5042831;28;20422;-66
2023/11/29 11:57:44;;;;;;;6.43;4.43;;;6.10;99.90;;;;;;5041926;28;20191;-66
2023/11/29 12:00:12;;;;;;;6.73;4.90;;;6.10;99.90;;;;;;5039824;28;20175;-67
2023/11/29 12:02:39;;;;;;;5.73;4.67;;;6.00;99.90;;;;;;5038703;28;20960;-67
2023/11/29 12:05:07;;;;;;;5.17;4.00;;;6.00;99.90;;;;;;5042472;28;20428;-67
2023/11/29 12:07:36;;;;;;;3.77;3.37;;;6.10;99.90;;;;;;5040134;28;20434;-67
2023/11/29 12:10:03;;;;;;;4.20;3.80;;;6.20;99.90;;;;;;5045018;28;20477;-67
2023/11/29 12:12:29;;;;;;;5.10;4.10;;;6.20;99.90;;;;;;5043293;28;20406;-66
2023/11/29 12:14:56;;;;;;;7.90;4.00;;;6.30;99.90;;;;;;5044024;28;20533;-67
2023/11/29 12:17:21;;;;;;;7.10;4.30;;;6.30;99.90;;;;;;5045156;28;20661;-67
2023/11/29 12:19:49;;;;;;;4.43;3.50;;;6.00;99.90;;;;;;5042305;28;20501;-67
2023/11/29 12:22:19;;;;;;;4.70;3.47;;;6.00;99.90;;;;;;5041700;28;20426;-67
2023/11/29 12:24:46;;;;;;;4.30;3.90;;;6.00;99.90;;;;;;5037126;28;20940;-67
2023/11/29 12:27:13;;;;;;;6.00;3.97;;;5.90;99.90;;;;;;5041120;28;20438;-66
2023/11/29 12:29:48;;;;;;;4.80;4.30;;;5.80;99.90;;;;;;5042526;28;20419;-67
2023/11/29 12:32:15;;;;;;;6.63;4.40;;;5.60;99.90;;;;;;5041110;28;20806;-67
2023/11/29 12:34:44;;;;;;;10.23;4.43;;;5.50;99.90;;;;;;5039096;28;20473;-67
2023/11/29 12:37:15;;;;;;;10.20;4.93;;;5.40;99.90;;;;;;5040527;28;20480;-67
2023/11/29 12:39:43;;;;;;;9.63;4.93;;;5.30;99.90;;;;;;5041424;28;20442;-67
2023/11/29 12:42:09;;;;;;;7.17;5.40;;;5.30;99.90;;;;;;5039050;28;20414;-67
2023/11/29 12:44:35;;;;;;;6.43;4.97;;;5.30;99.90;;;;;;5046501;28;20452;-69
2023/11/29 12:47:01;;;;;;;7.27;5.63;;;5.30;99.90;;;;;;5040532;28;20422;-66
2023/11/29 12:49:29;;;;;;;8.00;4.23;;;5.30;99.90;;;;;;5038106;28;20562;-67